sensor_id;sensor_type;location;lat;lon;timestamp;pressure;altitude;pressure_sealevel;temperature;humidity
69535;BME280;56754;51.568;5.048;2023-08-07T00:01:26;101360.47;;;17.47;68.43
69535;BME280;56754;51.568;5.048;2023-08-07T00:03:51;101372.41;;;17.46;69.46
69535;BME280;56754;51.568;5.048;2023-08-07T00:06:16;101367.78;;;17.47;69.85
69535;BME280;56754;51.568;5.048;2023-08-07T00:08:41;101373.56;;;17.45;67.98
69535;BME280;56754;51.568;5.048;2023-08-07T00:11:11;101368.16;;;17.45;69.19
69535;BME280;56754;51.568;5.048;2023-08-07T00:13:37;101373.56;;;17.45;68.87
69535;BME280;56754;51.568;5.048;2023-08-07T00:16:02;101365.78;;;17.44;68.45
69535;BME280;56754;51.568;5.048;2023-08-07T00:18:28;101368.94;;;17.46;70.48
69535;BME280;56754;51.568;5.048;2023-08-07T00:20:54;101369.25;;;17.44;68.79
69535;BME280;56754;51.568;5.048;2023-08-07T00:23:19;101368.47;;;17.44;67.48
69535;BME280;56754;51.568;5.048;2023-08-07T00:25:44;101366.56;;;17.44;68.59
69535;BME280;56754;51.568;5.048;2023-08-07T00:28:10;101364.22;;;17.43;68.73
69535;BME280;56754;51.568;5.048;2023-08-07T00:30:35;101368.81;;;17.42;68.67
69535;BME280;56754;51.568;5.048;2023-08-07T00:33:00;101367.25;;;17.41;68.74
69535;BME280;56754;51.568;5.048;2023-08-07T00:35:25;101364.22;;;17.43;69.37
69535;BME280;56754;51.568;5.048;2023-08-07T00:37:51;101372.63;;;17.41;69.65
69535;BME280;56754;51.568;5.048;2023-08-07T00:40:17;101370.03;;;17.45;69.67
69535;BME280;56754;51.568;5.048;2023-08-07T00:42:42;101377.34;;;17.44;69.80
69535;BME280;56754;51.568;5.048;2023-08-07T00:45:08;101374.66;;;17.44;69.60
69535;BME280;56754;51.568;5.048;2023-08-07T00:47:33;101374.66;;;17.44;70.35
69535;BME280;56754;51.568;5.048;2023-08-07T00:50:00;101373.88;;;17.44;68.84
69535;BME280;56754;51.568;5.048;2023-08-07T00:52:27;101373.56;;;17.45;69.87
69535;BME280;56754;51.568;5.048;2023-08-07T00:54:52;101370.84;;;17.45;69.54
69535;BME280;56754;51.568;5.048;2023-08-07T00:57:17;101368.94;;;17.46;69.79
69535;BME280;56754;51.568;5.048;2023-08-07T00:59:43;101375.44;;;17.45;69.28
69535;BME280;56754;51.568;5.048;2023-08-07T01:02:11;101377.03;;;17.46;70.14
69535;BME280;56754;51.568;5.048;2023-08-07T01:04:37;101378.94;;;17.45;69.35
69535;BME280;56754;51.568;5.048;2023-08-07T01:07:03;101386.25;;;17.45;68.44
69535;BME280;56754;51.568;5.048;2023-08-07T01:09:28;101390.09;;;17.44;68.45
69535;BME280;56754;51.568;5.048;2023-08-07T01:12:20;101383.91;;;17.43;69.04
69535;BME280;56754;51.568;5.048;2023-08-07T01:17:16;101385.81;;;17.43;69.40
69535;BME280;56754;51.568;5.048;2023-08-07T01:19:44;101385.38;;;17.41;68.05
69535;BME280;56754;51.568;5.048;2023-08-07T01:22:14;101411.59;;;17.40;67.98
69535;BME280;56754;51.568;5.048;2023-08-07T01:24:42;101410.81;;;17.40;67.93
69535;BME280;56754;51.568;5.048;2023-08-07T01:32:49;101421.97;;;17.38;68.62
69535;BME280;56754;51.568;5.048;2023-08-07T01:35:21;101408.13;;;17.40;70.15
69535;BME280;56754;51.568;5.048;2023-08-07T01:37:48;101401.59;;;17.41;69.55
69535;BME280;56754;51.568;5.048;2023-08-07T01:40:15;101407.34;;;17.39;69.23
69535;BME280;56754;51.568;5.048;2023-08-07T01:42:43;101400.34;;;17.38;70.01
69535;BME280;56754;51.568;5.048;2023-08-07T01:45:09;101394.94;;;17.38;70.62
69535;BME280;56754;51.568;5.048;2023-08-07T01:47:34;101394.94;;;17.38;69.88
69535;BME280;56754;51.568;5.048;2023-08-07T01:50:00;101386.41;;;17.36;70.17
69535;BME280;56754;51.568;5.048;2023-08-07T01:52:25;101387.19;;;17.37;70.64
69535;BME280;56754;51.568;5.048;2023-08-07T01:54:50;101393.38;;;17.37;70.51
69535;BME280;56754;51.568;5.048;2023-08-07T01:57:16;101392.59;;;17.37;70.61
69535;BME280;56754;51.568;5.048;2023-08-07T01:59:41;101390.69;;;17.37;70.88
69535;BME280;56754;51.568;5.048;2023-08-07T02:02:06;101393.69;;;17.36;69.58
69535;BME280;56754;51.568;5.048;2023-08-07T02:04:31;101394.84;;;17.35;69.41
69535;BME280;56754;51.568;5.048;2023-08-07T02:06:57;101394.06;;;17.34;70.19
69535;BME280;56754;51.568;5.048;2023-08-07T02:09:22;101392.47;;;17.33;70.01
69535;BME280;56754;51.568;5.048;2023-08-07T02:11:47;101399.78;;;17.33;69.35
69535;BME280;56754;51.568;5.048;2023-08-07T02:14:13;101398.22;;;17.32;70.09
69535;BME280;56754;51.568;5.048;2023-08-07T02:16:38;101402.06;;;17.31;68.34
69535;BME280;56754;51.568;5.048;2023-08-07T02:19:03;101395.06;;;17.29;69.29
69535;BME280;56754;51.568;5.048;2023-08-07T02:21:28;101401.25;;;17.30;70.38
69535;BME280;56754;51.568;5.048;2023-08-07T02:23:54;101396.66;;;17.31;69.25
69535;BME280;56754;51.568;5.048;2023-08-07T02:26:19;101409.38;;;17.30;70.66
69535;BME280;56754;51.568;5.048;2023-08-07T02:28:44;101406.66;;;17.30;70.62
69535;BME280;56754;51.568;5.048;2023-08-07T02:31:10;101405.56;;;17.31;70.12
69535;BME280;56754;51.568;5.048;2023-08-07T02:33:35;101414.75;;;17.30;69.33
69535;BME280;56754;51.568;5.048;2023-08-07T02:36:00;101395.84;;;17.30;69.92
69535;BME280;56754;51.568;5.048;2023-08-07T02:38:25;101405.09;;;17.29;70.39
69535;BME280;56754;51.568;5.048;2023-08-07T02:40:51;101407.00;;;17.28;68.02
69535;BME280;56754;51.568;5.048;2023-08-07T02:43:16;101398.13;;;17.28;70.00
69535;BME280;56754;51.568;5.048;2023-08-07T02:45:41;101395.44;;;17.28;69.52
69535;BME280;56754;51.568;5.048;2023-08-07T02:48:07;101405.44;;;17.27;70.18
69535;BME280;56754;51.568;5.048;2023-08-07T02:50:32;101406.22;;;17.28;70.21
69535;BME280;56754;51.568;5.048;2023-08-07T02:52:57;101407.00;;;17.28;69.55
69535;BME280;56754;51.568;5.048;2023-08-07T02:55:23;101408.56;;;17.29;70.06
69535;BME280;56754;51.568;5.048;2023-08-07T02:57:48;101403.16;;;17.29;70.26
69535;BME280;56754;51.568;5.048;2023-08-07T03:00:13;101396.22;;;17.28;69.04
69535;BME280;56754;51.568;5.048;2023-08-07T03:02:39;101405.88;;;17.29;69.48
69535;BME280;56754;51.568;5.048;2023-08-07T03:05:04;101410.50;;;17.29;69.50
69535;BME280;56754;51.568;5.048;2023-08-07T03:07:30;101402.38;;;17.29;70.28
69535;BME280;56754;51.568;5.048;2023-08-07T03:09:55;101397.78;;;17.29;70.11
69535;BME280;56754;51.568;5.048;2023-08-07T03:12:20;101397.00;;;17.29;69.66
69535;BME280;56754;51.568;5.048;2023-08-07T03:14:46;101397.78;;;17.29;69.59
69535;BME280;56754;51.568;5.048;2023-08-07T03:17:11;101397.00;;;17.29;68.75
69535;BME280;56754;51.568;5.048;2023-08-07T03:19:36;101403.53;;;17.28;69.14
69535;BME280;56754;51.568;5.048;2023-08-07T03:22:02;101393.50;;;17.28;69.92
69535;BME280;56754;51.568;5.048;2023-08-07T03:24:27;101403.53;;;17.28;69.53
69535;BME280;56754;51.568;5.048;2023-08-07T03:26:52;101396.53;;;17.27;67.52
69535;BME280;56754;51.568;5.048;2023-08-07T03:29:17;101401.16;;;17.26;67.85
69535;BME280;56754;51.568;5.048;2023-08-07T03:31:43;101400.81;;;17.28;69.72
69535;BME280;56754;51.568;5.048;2023-08-07T03:34:08;101397.34;;;17.27;67.93
69535;BME280;56754;51.568;5.048;2023-08-07T03:36:34;101390.34;;;17.26;68.23
69535;BME280;56754;51.568;5.048;2023-08-07T03:38:59;101407.34;;;17.27;69.67
69535;BME280;56754;51.568;5.048;2023-08-07T03:41:24;101403.53;;;17.28;69.21
69535;BME280;56754;51.568;5.048;2023-08-07T03:43:49;101400.03;;;17.27;68.97
69535;BME280;56754;51.568;5.048;2023-08-07T03:46:15;101407.34;;;17.27;69.39
69535;BME280;56754;51.568;5.048;2023-08-07T03:48:40;101401.94;;;17.27;69.10
69535;BME280;56754;51.568;5.048;2023-08-07T03:51:06;101416.25;;;17.27;68.29
69535;BME280;56754;51.568;5.048;2023-08-07T03:53:31;101408.47;;;17.26;68.02
69535;BME280;56754;51.568;5.048;2023-08-07T03:55:56;101415.44;;;17.27;67.91
69535;BME280;56754;51.568;5.048;2023-08-07T03:58:22;101404.63;;;17.27;67.68
69535;BME280;56754;51.568;5.048;2023-08-07T04:00:47;101420.06;;;17.26;68.08
69535;BME280;56754;51.568;5.048;2023-08-07T04:03:12;101415.81;;;17.25;68.00
69535;BME280;56754;51.568;5.048;2023-08-07T04:05:38;101424.69;;;17.26;68.32
69535;BME280;56754;51.568;5.048;2023-08-07T04:08:03;101421.19;;;17.25;68.58
69535;BME280;56754;51.568;5.048;2023-08-07T04:10:28;101416.59;;;17.26;69.35
69535;BME280;56754;51.568;5.048;2023-08-07T04:12:54;101427.38;;;17.26;69.13
69535;BME280;56754;51.568;5.048;2023-08-07T04:15:19;101425.81;;;17.25;68.04
69535;BME280;56754;51.568;5.048;2023-08-07T04:17:44;101433.94;;;17.25;68.09
69535;BME280;56754;51.568;5.048;2023-08-07T04:20:09;101441.25;;;17.24;69.84
69535;BME280;56754;51.568;5.048;2023-08-07T04:22:35;101443.94;;;17.24;68.18
69535;BME280;56754;51.568;5.048;2023-08-07T04:25:00;101437.72;;;17.24;67.67
69535;BME280;56754;51.568;5.048;2023-08-07T04:27:26;101433.94;;;17.25;67.94
69535;BME280;56754;51.568;5.048;2023-08-07T04:29:51;101439.34;;;17.25;68.70
69535;BME280;56754;51.568;5.048;2023-08-07T04:32:16;101428.53;;;17.25;68.74
69535;BME280;56754;51.568;5.048;2023-08-07T04:34:41;101438.56;;;17.24;68.81
69535;BME280;56754;51.568;5.048;2023-08-07T04:37:07;101424.22;;;17.24;68.32
69535;BME280;56754;51.568;5.048;2023-08-07T04:39:32;101434.25;;;17.23;69.16
69535;BME280;56754;51.568;5.048;2023-08-07T04:41:57;101436.63;;;17.25;68.75
69535;BME280;56754;51.568;5.048;2023-08-07T04:44:23;101431.56;;;17.23;68.64
69535;BME280;56754;51.568;5.048;2023-08-07T04:46:48;101434.25;;;17.23;68.71
69535;BME280;56754;51.568;5.048;2023-08-07T04:49:13;101430.78;;;17.23;67.52
69535;BME280;56754;51.568;5.048;2023-08-07T04:51:38;101436.16;;;17.23;68.06
69535;BME280;56754;51.568;5.048;2023-08-07T04:54:04;101446.66;;;17.24;68.50
69535;BME280;56754;51.568;5.048;2023-08-07T04:56:29;101438.88;;;17.23;68.66
69535;BME280;56754;51.568;5.048;2023-08-07T04:58:54;101443.50;;;17.22;68.64
69535;BME280;56754;51.568;5.048;2023-08-07T05:01:19;101445.84;;;17.24;68.66
69535;BME280;56754;51.568;5.048;2023-08-07T05:03:45;101439.66;;;17.23;68.21
69535;BME280;56754;51.568;5.048;2023-08-07T05:06:10;101445.84;;;17.24;68.62
69535;BME280;56754;51.568;5.048;2023-08-07T05:08:35;101451.25;;;17.24;68.63
69535;BME280;56754;51.568;5.048;2023-08-07T05:11:00;101448.53;;;17.24;68.24
69535;BME280;56754;51.568;5.048;2023-08-07T05:13:26;101451.59;;;17.22;68.41
69535;BME280;56754;51.568;5.048;2023-08-07T05:15:51;101453.94;;;17.24;67.94
69535;BME280;56754;51.568;5.048;2023-08-07T05:18:17;101449.34;;;17.24;68.66
69535;BME280;56754;51.568;5.048;2023-08-07T05:20:45;101457.09;;;17.26;69.19
69535;BME280;56754;51.568;5.048;2023-08-07T05:23:10;101457.56;;;17.28;68.21
69535;BME280;56754;51.568;5.048;2023-08-07T05:25:36;101457.56;;;17.28;67.95
69535;BME280;56754;51.568;5.048;2023-08-07T05:28:01;101464.22;;;17.31;68.63
69535;BME280;56754;51.568;5.048;2023-08-07T05:30:27;101461.16;;;17.32;68.39
69535;BME280;56754;51.568;5.048;2023-08-07T05:32:52;101463.53;;;17.34;67.81
69535;BME280;56754;51.568;5.048;2023-08-07T05:35:17;101465.09;;;17.35;67.78
69535;BME280;56754;51.568;5.048;2023-08-07T05:37:42;101465.09;;;17.35;67.64
69535;BME280;56754;51.568;5.048;2023-08-07T05:40:08;101466.66;;;17.36;67.90
69535;BME280;56754;51.568;5.048;2023-08-07T05:42:33;101476.34;;;17.37;67.71
69535;BME280;56754;51.568;5.048;2023-08-07T05:44:59;101474.09;;;17.39;67.90
69535;BME280;56754;51.568;5.048;2023-08-07T05:47:24;101476.78;;;17.39;67.33
69535;BME280;56754;51.568;5.048;2023-08-07T05:49:50;101483.44;;;17.41;67.50
69535;BME280;56754;51.568;5.048;2023-08-07T05:52:15;101483.09;;;17.43;67.44
69535;BME280;56754;51.568;5.048;2023-08-07T05:54:40;101484.66;;;17.44;66.23
69535;BME280;56754;51.568;5.048;2023-08-07T05:57:06;101489.75;;;17.45;66.82
69535;BME280;56754;51.568;5.048;2023-08-07T05:59:31;101495.59;;;17.47;66.69
69535;BME280;56754;51.568;5.048;2023-08-07T06:01:56;101497.97;;;17.49;66.81
69535;BME280;56754;51.568;5.048;2023-08-07T06:04:22;101497.59;;;17.50;66.55
69535;BME280;56754;51.568;5.048;2023-08-07T06:06:47;101497.28;;;17.52;66.32
69535;BME280;56754;51.568;5.048;2023-08-07T06:09:13;101503.16;;;17.54;66.28
69535;BME280;56754;51.568;5.048;2023-08-07T06:11:38;101506.28;;;17.56;66.29
69535;BME280;56754;51.568;5.048;2023-08-07T06:14:03;101505.94;;;17.58;65.44
69535;BME280;56754;51.568;5.048;2023-08-07T06:16:29;101511.69;;;17.56;64.57
69535;BME280;56754;51.568;5.048;2023-08-07T06:18:54;101511.69;;;17.56;65.53
69535;BME280;56754;51.568;5.048;2023-08-07T06:21:19;101504.34;;;17.57;64.98
69535;BME280;56754;51.568;5.048;2023-08-07T06:23:45;101511.34;;;17.58;65.40
69535;BME280;56754;51.568;5.048;2023-08-07T06:26:10;101519.91;;;17.60;65.82
69535;BME280;56754;51.568;5.048;2023-08-07T06:28:35;101526.53;;;17.62;65.49
69535;BME280;56754;51.568;5.048;2023-08-07T06:31:08;101512.69;;;17.64;65.35
69535;BME280;56754;51.568;5.048;2023-08-07T06:33:33;101517.75;;;17.65;65.42
69535;BME280;56754;51.568;5.048;2023-08-07T06:35:59;101512.78;;;17.67;65.34
69535;BME280;56754;51.568;5.048;2023-08-07T06:38:25;101516.28;;;17.68;65.57
69535;BME280;56754;51.568;5.048;2023-08-07T06:40:50;101512.47;;;17.69;64.60
69535;BME280;56754;51.568;5.048;2023-08-07T06:43:15;101521.00;;;17.71;65.23
69535;BME280;56754;51.568;5.048;2023-08-07T06:45:41;101524.16;;;17.73;65.24
69535;BME280;56754;51.568;5.048;2023-08-07T06:48:06;101523.50;;;17.76;65.31
69535;BME280;56754;51.568;5.048;2023-08-07T06:50:31;101522.84;;;17.79;64.82
69535;BME280;56754;51.568;5.048;2023-08-07T06:52:57;101536.03;;;17.81;65.01
69535;BME280;56754;51.568;5.048;2023-08-07T06:55:22;101527.56;;;17.82;65.03
69535;BME280;56754;51.568;5.048;2023-08-07T06:57:47;101528.81;;;17.85;64.71
69535;BME280;56754;51.568;5.048;2023-08-07T07:00:13;101533.84;;;17.86;64.40
69535;BME280;56754;51.568;5.048;2023-08-07T07:02:38;101530.03;;;17.87;64.51
69535;BME280;56754;51.568;5.048;2023-08-07T07:05:03;101534.75;;;17.90;64.28
69535;BME280;56754;51.568;5.048;2023-08-07T07:07:29;101534.41;;;17.92;64.41
69535;BME280;56754;51.568;5.048;2023-08-07T07:09:54;101529.81;;;17.92;63.76
69535;BME280;56754;51.568;5.048;2023-08-07T07:12:22;101537.25;;;17.95;63.52
69535;BME280;56754;51.568;5.048;2023-08-07T07:14:48;101545.00;;;17.97;64.12
69535;BME280;56754;51.568;5.048;2023-08-07T07:17:13;101541.97;;;17.99;64.00
69535;BME280;56754;51.568;5.048;2023-08-07T07:19:38;101554.34;;;18.00;63.94
69535;BME280;56754;51.568;5.048;2023-08-07T07:22:04;101544.31;;;18.00;63.79
69535;BME280;56754;51.568;5.048;2023-08-07T07:24:29;101558.63;;;18.01;63.06
69535;BME280;56754;51.568;5.048;2023-08-07T07:26:54;101558.63;;;18.01;63.67
69535;BME280;56754;51.568;5.048;2023-08-07T07:29:20;101550.19;;;18.02;63.60
69535;BME280;56754;51.568;5.048;2023-08-07T07:31:45;101561.78;;;18.03;63.72
69535;BME280;56754;51.568;5.048;2023-08-07T07:34:10;101559.84;;;18.03;63.73
69535;BME280;56754;51.568;5.048;2023-08-07T07:36:36;101564.47;;;18.03;63.28
69535;BME280;56754;51.568;5.048;2023-08-07T07:39:01;101558.72;;;18.04;63.63
69535;BME280;56754;51.568;5.048;2023-08-07T07:41:26;101561.41;;;18.04;63.09
69535;BME280;56754;51.568;5.048;2023-08-07T07:43:52;101566.50;;;18.06;63.48
69535;BME280;56754;51.568;5.048;2023-08-07T07:46:17;101568.88;;;18.07;63.41
69535;BME280;56754;51.568;5.048;2023-08-07T07:48:42;101575.06;;;18.08;63.23
69535;BME280;56754;51.568;5.048;2023-08-07T07:51:07;101572.00;;;18.09;63.64
69535;BME280;56754;51.568;5.048;2023-08-07T07:53:33;101569.75;;;18.11;62.74
69535;BME280;56754;51.568;5.048;2023-08-07T07:55:58;101574.03;;;18.12;63.46
69535;BME280;56754;51.568;5.048;2023-08-07T07:58:23;101574.13;;;18.16;63.55
69535;BME280;56754;51.568;5.048;2023-08-07T08:00:49;101578.44;;;18.17;62.99
69535;BME280;56754;51.568;5.048;2023-08-07T08:03:14;101576.19;;;18.19;63.14
69535;BME280;56754;51.568;5.048;2023-08-07T08:05:40;101580.09;;;18.22;62.80
69535;BME280;56754;51.568;5.048;2023-08-07T08:08:06;101587.88;;;18.23;62.85
69535;BME280;56754;51.568;5.048;2023-08-07T08:10:32;101598.03;;;18.26;62.54
69535;BME280;56754;51.568;5.048;2023-08-07T08:12:57;101596.88;;;18.27;62.28
69535;BME280;56754;51.568;5.048;2023-08-07T08:15:22;101599.69;;;18.31;61.76
69535;BME280;56754;51.568;5.048;2023-08-07T08:17:48;101600.91;;;18.33;61.47
69535;BME280;56754;51.568;5.048;2023-08-07T08:20:14;101604.06;;;18.35;61.75
69535;BME280;56754;51.568;5.048;2023-08-07T08:22:39;101603.41;;;18.38;61.58
69535;BME280;56754;51.568;5.048;2023-08-07T08:25:05;101609.25;;;18.40;60.86
69535;BME280;56754;51.568;5.048;2023-08-07T08:27:30;101611.97;;;18.40;60.91
69535;BME280;56754;51.568;5.048;2023-08-07T08:29:55;101617.38;;;18.40;60.79
69535;BME280;56754;51.568;5.048;2023-08-07T08:32:21;101616.69;;;18.44;61.58
69535;BME280;56754;51.568;5.048;2023-08-07T08:34:46;101612.84;;;18.45;61.41
69535;BME280;56754;51.568;5.048;2023-08-07T08:37:11;101614.41;;;18.46;60.50
69535;BME280;56754;51.568;5.048;2023-08-07T08:39:36;101621.06;;;18.48;61.31
69535;BME280;56754;51.568;5.048;2023-08-07T08:42:02;101618.34;;;18.48;61.09
69535;BME280;56754;51.568;5.048;2023-08-07T08:44:27;101616.88;;;18.51;61.25
69535;BME280;56754;51.568;5.048;2023-08-07T08:46:55;101614.19;;;18.51;60.95
69535;BME280;56754;51.568;5.048;2023-08-07T08:49:30;101616.56;;;18.52;60.29
69535;BME280;56754;51.568;5.048;2023-08-07T08:51:56;101616.19;;;18.54;60.29
69535;BME280;56754;51.568;5.048;2023-08-07T08:54:22;101629.41;;;18.55;60.98
69535;BME280;56754;51.568;5.048;2023-08-07T08:56:48;101617.44;;;18.56;60.83
69535;BME280;56754;51.568;5.048;2023-08-07T08:59:14;101625.22;;;18.58;61.66
69535;BME280;56754;51.568;5.048;2023-08-07T09:01:39;101622.50;;;18.58;61.56
69535;BME280;56754;51.568;5.048;2023-08-07T09:04:05;101626.78;;;18.59;59.97
69535;BME280;56754;51.568;5.048;2023-08-07T09:06:31;101632.19;;;18.59;60.54
69535;BME280;56754;51.568;5.048;2023-08-07T09:08:58;101614.81;;;18.60;59.66
69535;BME280;56754;51.568;5.048;2023-08-07T09:11:24;101635.38;;;18.61;59.76
69535;BME280;56754;51.568;5.048;2023-08-07T09:13:49;101631.50;;;18.62;59.98
69535;BME280;56754;51.568;5.048;2023-08-07T09:16:15;101624.94;;;18.63;59.31
69535;BME280;56754;51.568;5.048;2023-08-07T09:18:42;101647.44;;;18.63;59.92
69535;BME280;56754;51.568;5.048;2023-08-07T09:21:09;101637.38;;;18.64;60.69
69535;BME280;56754;51.568;5.048;2023-08-07T09:23:34;101647.06;;;18.65;59.68
69535;BME280;56754;51.568;5.048;2023-08-07T09:26:03;101647.44;;;18.63;59.79
69535;BME280;56754;51.568;5.048;2023-08-07T09:28:30;101647.06;;;18.65;60.59
69535;BME280;56754;51.568;5.048;2023-08-07T09:30:55;101644.03;;;18.67;60.39
69535;BME280;56754;51.568;5.048;2023-08-07T09:33:26;101645.94;;;18.66;60.58
69535;BME280;56754;51.568;5.048;2023-08-07T09:35:51;101650.22;;;18.67;61.33
69535;BME280;56754;51.568;5.048;2023-08-07T09:38:17;101652.94;;;18.67;59.32
69535;BME280;56754;51.568;5.048;2023-08-07T09:40:42;101654.50;;;18.68;60.52
69535;BME280;56754;51.568;5.048;2023-08-07T09:43:08;101668.81;;;18.69;59.49
69535;BME280;56754;51.568;5.048;2023-08-07T09:45:33;101659.59;;;18.70;59.52
69535;BME280;56754;51.568;5.048;2023-08-07T09:48:00;101658.44;;;18.71;59.30
69535;BME280;56754;51.568;5.048;2023-08-07T09:50:26;101649.19;;;18.72;59.91
69535;BME280;56754;51.568;5.048;2023-08-07T09:52:51;101656.53;;;18.71;59.55
69535;BME280;56754;51.568;5.048;2023-08-07T09:55:17;101660.78;;;18.72;60.17
69535;BME280;56754;51.568;5.048;2023-08-07T09:57:45;101669.41;;;18.74;59.79
69535;BME280;56754;51.568;5.048;2023-08-07T10:00:14;101674.03;;;18.74;59.63
69535;BME280;56754;51.568;5.048;2023-08-07T10:02:40;101665.91;;;18.74;61.06
69535;BME280;56754;51.568;5.048;2023-08-07T10:05:06;101672.56;;;18.76;60.27
69535;BME280;56754;51.568;5.048;2023-08-07T10:07:32;101671.00;;;18.75;58.76
69535;BME280;56754;51.568;5.048;2023-08-07T10:10:02;101672.56;;;18.76;59.67
69535;BME280;56754;51.568;5.048;2023-08-07T10:12:28;101672.56;;;18.76;59.13
69535;BME280;56754;51.568;5.048;2023-08-07T10:14:54;101678.75;;;18.77;59.24
69535;BME280;56754;51.568;5.048;2023-08-07T10:17:21;101679.56;;;18.77;58.16
69535;BME280;56754;51.568;5.048;2023-08-07T10:19:47;101681.16;;;18.78;58.58
69535;BME280;56754;51.568;5.048;2023-08-07T10:22:14;101682.72;;;18.79;59.57
69535;BME280;56754;51.568;5.048;2023-08-07T10:24:42;101688.91;;;18.80;58.28
69535;BME280;56754;51.568;5.048;2023-08-07T10:27:08;101684.28;;;18.80;58.25
69535;BME280;56754;51.568;5.048;2023-08-07T10:29:35;101686.19;;;18.80;57.53
69535;BME280;56754;51.568;5.048;2023-08-07T10:32:02;101688.56;;;18.81;58.38
69535;BME280;56754;51.568;5.048;2023-08-07T10:34:29;101685.88;;;18.81;59.51
69535;BME280;56754;51.568;5.048;2023-08-07T10:36:54;101683.94;;;18.82;58.61
69535;BME280;56754;51.568;5.048;2023-08-07T10:39:20;101683.59;;;18.83;58.91
69535;BME280;56754;51.568;5.048;2023-08-07T10:41:46;101685.19;;;18.84;59.05
69535;BME280;56754;51.568;5.048;2023-08-07T10:44:19;101689.47;;;18.85;61.29
69535;BME280;56754;51.568;5.048;2023-08-07T10:46:49;101695.31;;;18.88;61.96
69535;BME280;56754;51.568;5.048;2023-08-07T10:49:38;101684.91;;;18.90;62.81
69535;BME280;56754;51.568;5.048;2023-08-07T10:52:08;101694.63;;;18.91;59.40
69535;BME280;56754;51.568;5.048;2023-08-07T10:54:38;101702.41;;;18.92;57.79
69535;BME280;56754;51.568;5.048;2023-08-07T10:57:10;101689.66;;;18.93;59.17
69535;BME280;56754;51.568;5.048;2023-08-07T10:59:37;101710.63;;;18.96;59.41
69535;BME280;56754;51.568;5.048;2023-08-07T11:02:07;101704.09;;;18.97;57.53
69535;BME280;56754;51.568;5.048;2023-08-07T11:04:34;101701.81;;;18.99;59.56
69535;BME280;56754;51.568;5.048;2023-08-07T11:06:59;101705.31;;;18.99;61.39
69535;BME280;56754;51.568;5.048;2023-08-07T11:09:24;101702.63;;;18.99;59.26
69535;BME280;56754;51.568;5.048;2023-08-07T11:11:50;101707.69;;;19.01;60.05
69535;BME280;56754;51.568;5.048;2023-08-07T11:14:16;101703.03;;;19.01;59.16
69535;BME280;56754;51.568;5.048;2023-08-07T11:16:43;101706.56;;;19.02;57.85
69535;BME280;56754;51.568;5.048;2023-08-07T11:19:09;101697.75;;;19.05;60.24
69535;BME280;56754;51.568;5.048;2023-08-07T11:21:34;101704.28;;;19.04;57.95
69535;BME280;56754;51.568;5.048;2023-08-07T11:24:00;101700.00;;;19.03;56.84
69535;BME280;56754;51.568;5.048;2023-08-07T11:26:26;101694.22;;;19.04;61.70
69535;BME280;56754;51.568;5.048;2023-08-07T11:28:51;101695.81;;;19.05;62.69
69535;BME280;56754;51.568;5.048;2023-08-07T11:31:20;101697.38;;;19.06;59.24
69535;BME280;56754;51.568;5.048;2023-08-07T11:33:46;101695.47;;;19.07;59.80
69535;BME280;56754;51.568;5.048;2023-08-07T11:36:14;101692.75;;;19.07;58.33
69535;BME280;56754;51.568;5.048;2023-08-07T11:38:41;101696.69;;;19.09;62.46
69535;BME280;56754;51.568;5.048;2023-08-07T11:41:07;101695.91;;;19.09;59.24
69535;BME280;56754;51.568;5.048;2023-08-07T11:43:34;101712.94;;;19.09;61.23
69535;BME280;56754;51.568;5.048;2023-08-07T11:46:10;101702.88;;;19.10;59.99
69535;BME280;56754;51.568;5.048;2023-08-07T11:48:37;101709.91;;;19.11;60.25
69535;BME280;56754;51.568;5.048;2023-08-07T11:51:04;101709.53;;;19.13;61.97
69535;BME280;56754;51.568;5.048;2023-08-07T11:53:31;101710.31;;;19.13;62.13
69535;BME280;56754;51.568;5.048;2023-08-07T11:55:59;101712.72;;;19.15;62.71
69535;BME280;56754;51.568;5.048;2023-08-07T11:58:26;101712.34;;;19.16;62.38
69535;BME280;56754;51.568;5.048;2023-08-07T12:00:52;101704.22;;;19.16;59.96
69535;BME280;56754;51.568;5.048;2023-08-07T12:03:28;101696.09;;;19.16;61.05
69535;BME280;56754;51.568;5.048;2023-08-07T12:05:55;101702.31;;;19.17;60.50
69535;BME280;56754;51.568;5.048;2023-08-07T12:08:21;101711.22;;;19.17;61.36
69535;BME280;56754;51.568;5.048;2023-08-07T12:11:00;101713.94;;;19.17;62.49
69535;BME280;56754;51.568;5.048;2023-08-07T12:13:26;101724.41;;;19.19;62.39
69535;BME280;56754;51.568;5.048;2023-08-07T12:15:54;101718.22;;;19.18;62.44
69535;BME280;56754;51.568;5.048;2023-08-07T12:18:23;101717.44;;;19.18;61.48
69535;BME280;56754;51.568;5.048;2023-08-07T12:20:50;101711.22;;;19.17;62.47
69535;BME280;56754;51.568;5.048;2023-08-07T12:23:16;101723.63;;;19.18;61.59
69535;BME280;56754;51.568;5.048;2023-08-07T12:25:42;101711.66;;;19.19;63.05
69535;BME280;56754;51.568;5.048;2023-08-07T12:28:07;101723.31;;;19.20;62.85
69535;BME280;56754;51.568;5.048;2023-08-07T12:30:36;101714.03;;;19.21;62.54
69535;BME280;56754;51.568;5.048;2023-08-07T12:33:02;101722.16;;;19.21;61.56
69535;BME280;56754;51.568;5.048;2023-08-07T12:35:27;101724.88;;;19.21;61.86
69535;BME280;56754;51.568;5.048;2023-08-07T12:37:52;101719.09;;;19.22;62.36
69535;BME280;56754;51.568;5.048;2023-08-07T12:40:18;101718.31;;;19.22;61.16
69535;BME280;56754;51.568;5.048;2023-08-07T12:42:43;101717.19;;;19.23;61.95
69535;BME280;56754;51.568;5.048;2023-08-07T12:45:08;101717.97;;;19.23;63.18
69535;BME280;56754;51.568;5.048;2023-08-07T12:47:34;101713.78;;;19.26;62.43
69535;BME280;56754;51.568;5.048;2023-08-07T12:49:59;101712.28;;;19.28;61.82
69535;BME280;56754;51.568;5.048;2023-08-07T12:52:24;101717.69;;;19.28;63.16